Terminal Aerodrome Forecast
Issued by NWS

Home | Current Version | Previous Version | Text Only | Print | Product List | Glossary On
Versions: 1 2 3 4 5 6 7 8 9 10 11 12 13 14 15 16 17 18 19
000
FTUS44 KMAF 061725
TAFCNM
TAF
KCNM 061725Z 0618/0718 22008KT P6SM SCT080 BKN130 BKN250 PROB30
      0703/0706 VRB20G30KT 6SM TSRA BKN070CB
     FM070600 35020G28KT P6SM BKN060 BKN120 PROB30 0706/0712 TSRA
      BKN040CB=

USA.gov is the U.S. government's official web portal to all federal, state and local government web resources and services.